Time;durP1;ratioP1;P1;durP2;ratioP2;P2;SDS_P1;SDS_P2;PMS_P1;PMS_P2;Temp;Humidity;BMP_temperature;BMP_pressure;BME280_temperature;BME280_humidity;BME280_pressure;Samples;Min_cycle;Max_cycle;Signal;HPM_P1;HPM_P2
2022/11/04 00:01:28;;;;;;;1.17;0.30;;;20.70;50.40;;;;;;5070284;28;20044;-55
2022/11/04 00:03:55;;;;;;;0.68;0.10;;;20.70;50.40;;;;;;5070111;28;20128;-56
2022/11/04 00:06:24;;;;;;;1.35;0.10;;;20.70;50.40;;;;;;5070022;28;20040;-53
2022/11/04 00:08:52;;;;;;;0.40;0.10;;;20.70;50.40;;;;;;5069492;28;20398;-55
2022/11/04 00:14:06;;;;;;;2.20;1.75;;;20.70;50.30;;;;;;5069734;28;20048;-54
2022/11/04 00:19:17;;;;;;;0.90;0.10;;;20.70;50.30;;;;;;5069827;28;20413;-56
2022/11/04 00:30:03;;;;;;;4.47;0.15;;;20.70;50.20;;;;;;5051821;28;20068;-56
2022/11/04 00:35:16;;;;;;;0.68;0.20;;;20.60;50.10;;;;;;5048454;28;20049;-55
2022/11/04 00:37:45;;;;;;;1.95;1.08;;;20.70;50.20;;;;;;5049490;28;20412;-55
2022/11/04 00:40:14;;;;;;;0.55;0.10;;;20.70;50.10;;;;;;5081160;28;20140;-54
2022/11/04 00:42:44;;;;;;;2.95;0.73;;;20.70;50.10;;;;;;5089322;28;20036;-54
2022/11/04 00:45:11;;;;;;;1.65;0.20;;;20.70;50.10;;;;;;5088290;28;20055;-52
2022/11/04 00:47:38;;;;;;;1.73;0.10;;;20.70;50.00;;;;;;5087622;28;20040;-54
2022/11/04 00:50:06;;;;;;;0.63;0.57;;;20.70;50.00;;;;;;5068978;28;20075;-56
2022/11/04 00:52:33;;;;;;;3.55;0.10;;;20.70;49.90;;;;;;5068735;28;20101;-56
2022/11/04 00:55:02;;;;;;;2.85;0.25;;;20.70;49.90;;;;;;5068960;28;20139;-56
2022/11/04 00:57:29;;;;;;;4.18;0.20;;;20.70;49.90;;;;;;5068978;28;20041;-56
2022/11/04 00:59:56;;;;;;;1.05;0.10;;;20.70;49.90;;;;;;5068629;28;20147;-55
2022/11/04 01:02:23;;;;;;;1.70;0.10;;;20.70;49.90;;;;;;5068901;28;20424;-55
2022/11/04 01:04:50;;;;;;;1.05;0.10;;;20.70;49.80;;;;;;5068982;28;20076;-55
2022/11/04 01:07:17;;;;;;;1.98;0.10;;;20.70;49.80;;;;;;5068743;28;20033;-54
2022/11/04 01:09:44;;;;;;;3.13;0.10;;;20.70;49.80;;;;;;5068720;28;20048;-54
2022/11/04 01:12:12;;;;;;;2.83;0.10;;;20.70;49.80;;;;;;5068605;28;20043;-55
2022/11/04 01:14:39;;;;;;;3.22;0.57;;;20.70;49.80;;;;;;5068248;28;20044;-55
2022/11/04 01:17:06;;;;;;;1.13;0.10;;;20.70;49.80;;;;;;5062961;28;20421;-54
2022/11/04 01:19:33;;;;;;;0.98;0.10;;;20.70;49.80;;;;;;5051877;28;20044;-55
2022/11/04 01:22:01;;;;;;;3.10;0.45;;;20.70;49.80;;;;;;5068294;28;20033;-53
2022/11/04 01:24:28;;;;;;;2.00;0.32;;;20.70;49.70;;;;;;5068295;28;20044;-55
2022/11/04 01:26:55;;;;;;;2.75;0.57;;;20.70;49.70;;;;;;5068370;28;20037;-53
2022/11/04 01:29:24;;;;;;;3.13;0.20;;;20.70;49.70;;;;;;5068261;28;20639;-56
2022/11/04 01:31:51;;;;;;;0.93;0.10;;;20.70;49.70;;;;;;5066923;28;20465;-59
2022/11/04 01:34:18;;;;;;;1.85;0.10;;;20.70;49.70;;;;;;5067654;28;20048;-56
2022/11/04 01:36:45;;;;;;;3.30;0.20;;;20.70;49.70;;;;;;5066162;28;20048;-58
2022/11/04 01:39:12;;;;;;;3.90;0.15;;;20.70;49.70;;;;;;5068902;28;20191;-60
2022/11/04 01:41:40;;;;;;;5.75;1.20;;;20.70;50.30;;;;;;5063188;28;20090;-59
2022/11/04 01:44:40;;;;;;;1.85;0.10;;;20.70;50.50;;;;;;5067174;28;20071;-58
2022/11/04 01:47:16;;;;;;;5.18;0.20;;;20.70;50.50;;;;;;5069313;28;20068;-59
2022/11/04 01:49:47;;;;;;;4.68;0.10;;;20.70;50.80;;;;;;5067293;28;20095;-55
2022/11/04 01:52:17;;;;;;;5.05;0.20;;;20.70;50.90;;;;;;5067395;28;20045;-59
2022/11/04 01:54:46;;;;;;;1.52;0.40;;;20.70;51.00;;;;;;5059870;28;20073;-58
2022/11/04 01:57:18;;;;;;;4.47;0.90;;;20.70;50.90;;;;;;5060873;28;20040;-58
2022/11/04 01:59:46;;;;;;;4.07;1.05;;;20.70;50.90;;;;;;5067324;28;20564;-58
2022/11/04 02:02:14;;;;;;;1.77;0.38;;;20.70;50.90;;;;;;5067607;28;20041;-58
2022/11/04 02:04:42;;;;;;;3.67;0.68;;;20.80;51.00;;;;;;5061485;28;20590;-59
2022/11/04 02:07:10;;;;;;;1.75;0.20;;;20.80;51.00;;;;;;5070207;28;20039;-55
2022/11/04 02:09:39;;;;;;;2.63;0.20;;;20.80;51.00;;;;;;5067131;28;20040;-57
2022/11/04 02:14:52;;;;;;;0.68;0.20;;;20.80;51.50;;;;;;5065406;28;20064;-58
2022/11/04 02:17:37;;;;;;;1.80;0.28;;;20.70;51.10;;;;;;5064221;28;20029;-58
2022/11/04 02:20:27;;;;;;;5.68;0.30;;;20.80;51.00;;;;;;5067152;28;20509;-59
2022/11/04 02:23:23;;;;;;;1.27;0.40;;;20.80;51.00;;;;;;5067092;28;20155;-57
2022/11/04 02:26:24;;;;;;;3.00;0.20;;;20.70;51.00;;;;;;5067847;28;20072;-59
2022/11/04 02:29:20;;;;;;;0.47;0.10;;;20.80;51.10;;;;;;5067260;28;20148;-58
2022/11/04 02:31:53;;;;;;;1.13;0.28;;;20.80;51.10;;;;;;5068579;28;20145;-59
2022/11/04 02:34:31;;;;;;;3.30;0.10;;;20.70;51.20;;;;;;5070341;28;20041;-57
2022/11/04 02:37:08;;;;;;;5.35;0.20;;;20.80;51.20;;;;;;5071441;28;20041;-58
2022/11/04 02:39:41;;;;;;;1.55;0.43;;;20.80;51.10;;;;;;5071185;28;20049;-58
2022/11/04 02:42:14;;;;;;;3.45;0.32;;;20.80;51.10;;;;;;5071578;28;20044;-58
2022/11/04 02:44:48;;;;;;;6.38;0.20;;;20.70;51.10;;;;;;5071461;28;20053;-58
2022/11/04 02:47:18;;;;;;;3.20;0.75;;;20.80;51.10;;;;;;5073373;28;20040;-59
2022/11/04 02:49:51;;;;;;;1.52;0.20;;;20.80;51.10;;;;;;5052404;28;20047;-58
2022/11/04 02:52:22;;;;;;;2.90;0.10;;;20.80;51.10;;;;;;5071151;28;20536;-58
2022/11/04 02:54:54;;;;;;;0.70;0.20;;;20.80;51.10;;;;;;5069683;28;20084;-58
2022/11/04 02:57:26;;;;;;;3.95;0.32;;;20.80;51.10;;;;;;5071300;28;20052;-58
2022/11/04 02:59:59;;;;;;;1.27;0.10;;;20.80;51.00;;;;;;5070747;28;20041;-58
2022/11/04 03:02:30;;;;;;;1.30;0.30;;;20.80;51.00;;;;;;5070505;28;20085;-56
2022/11/04 03:04:59;;;;;;;3.78;0.43;;;20.80;51.00;;;;;;5070912;28;20068;-57
2022/11/04 03:07:31;;;;;;;2.30;0.30;;;20.80;51.00;;;;;;5069481;28;20047;-57
2022/11/04 03:10:02;;;;;;;0.88;0.10;;;20.80;51.00;;;;;;5054469;28;20045;-58
2022/11/04 03:12:36;;;;;;;3.40;0.95;;;20.80;51.00;;;;;;5070897;28;20064;-57
2022/11/04 03:15:10;;;;;;;1.33;0.10;;;20.80;51.00;;;;;;5070622;28;20412;-58
2022/11/04 03:17:46;;;;;;;2.00;0.57;;;20.80;51.00;;;;;;5070103;28;20079;-58
2022/11/04 03:20:18;;;;;;;3.65;0.10;;;20.80;51.00;;;;;;5079285;28;20028;-58
2022/11/04 03:22:45;;;;;;;1.05;0.10;;;20.80;51.00;;;;;;5071600;28;20047;-57
2022/11/04 03:25:13;;;;;;;1.52;0.10;;;20.70;51.00;;;;;;5071333;28;20040;-54
2022/11/04 03:27:45;;;;;;;3.53;0.10;;;20.80;51.00;;;;;;5072814;28;20048;-58
2022/11/04 03:30:16;;;;;;;0.20;0.20;;;20.80;51.10;;;;;;5070147;28;20043;-58
2022/11/04 03:32:49;;;;;;;1.80;0.10;;;20.80;51.10;;;;;;5070256;28;20048;-58
2022/11/04 03:35:17;;;;;;;1.10;0.10;;;20.80;51.00;;;;;;5070679;28;20055;-57
2022/11/04 03:37:47;;;;;;;0.17;0.00;;;20.80;51.10;;;;;;5072602;28;20043;-58
2022/11/04 03:40:16;;;;;;;0.35;0.10;;;20.80;51.10;;;;;;5070544;28;20044;-58
2022/11/04 03:42:46;;;;;;;1.75;0.17;;;20.80;51.10;;;;;;5062278;28;20047;-58
2022/11/04 03:45:15;;;;;;;1.40;0.00;;;20.80;51.10;;;;;;5063772;28;20129;-57
2022/11/04 03:47:42;;;;;;;5.30;0.10;;;20.80;51.10;;;;;;5069832;28;20052;-59
2022/11/04 03:50:14;;;;;;;0.40;0.10;;;20.80;51.10;;;;;;5070013;28;20454;-58
2022/11/04 03:52:41;;;;;;;0.25;0.05;;;20.80;51.10;;;;;;5069975;28;20531;-58
2022/11/04 03:55:10;;;;;;;2.22;0.10;;;20.80;51.00;;;;;;5070274;28;20041;-58
2022/11/04 03:57:48;;;;;;;2.50;0.10;;;20.80;51.00;;;;;;5069985;28;20567;-59
2022/11/04 04:00:19;;;;;;;2.08;0.13;;;20.80;51.00;;;;;;5069286;28;20615;-57
2022/11/04 04:03:01;;;;;;;0.57;0.10;;;20.80;51.10;;;;;;5069691;28;20063;-57
2022/11/04 04:05:32;;;;;;;0.77;0.10;;;20.80;51.00;;;;;;5068700;28;20138;-58
2022/11/04 04:08:17;;;;;;;2.25;0.10;;;20.80;51.00;;;;;;5069817;28;20032;-58
2022/11/04 04:11:05;;;;;;;1.15;0.10;;;20.80;51.00;;;;;;5069493;28;20342;-56
2022/11/04 04:13:38;;;;;;;1.27;0.77;;;20.80;51.00;;;;;;5069190;28;20080;-56
2022/11/04 04:16:12;;;;;;;0.30;0.00;;;20.80;51.00;;;;;;5084005;28;20040;-57
2022/11/04 04:18:44;;;;;;;0.50;0.03;;;20.80;51.00;;;;;;5067974;28;20569;-57
2022/11/04 04:21:16;;;;;;;1.17;0.10;;;20.80;50.90;;;;;;5069553;28;20111;-57
2022/11/04 04:29:20;;;;;;;1.00;0.10;;;20.80;50.90;;;;;;5068922;28;20058;-57
2022/11/04 04:31:49;;;;;;;0.65;0.22;;;20.80;50.90;;;;;;5062476;28;20513;-57
2022/11/04 04:34:18;;;;;;;1.58;0.10;;;20.80;50.80;;;;;;5069186;28;20472;-59
2022/11/04 04:36:48;;;;;;;0.70;0.10;;;20.80;50.80;;;;;;5069431;28;20047;-58
2022/11/04 04:44:59;;;;;;;0.45;0.17;;;20.80;50.80;;;;;;5069070;28;20102;-58
2022/11/04 04:47:30;;;;;;;;;;;20.80;50.80;;;;;;5069416;28;20571;-57
2022/11/04 04:49:58;;;;;;;1.38;0.00;;;20.70;50.70;;;;;;5070823;28;20388;-57
2022/11/04 04:52:28;;;;;;;3.60;0.55;;;20.70;50.90;;;;;;5068647;28;20516;-58
2022/11/04 04:54:55;;;;;;;0.73;0.10;;;20.70;50.90;;;;;;5068809;28;20080;-54
2022/11/04 04:57:22;;;;;;;1.27;0.00;;;20.70;50.90;;;;;;5068077;28;20033;-58
2022/11/04 04:59:49;;;;;;;0.40;0.20;;;20.70;50.80;;;;;;5068638;28;20578;-59
2022/11/04 05:02:16;;;;;;;2.58;0.10;;;20.70;50.80;;;;;;5068743;28;20493;-57
2022/11/04 05:04:45;;;;;;;0.43;0.20;;;20.70;51.40;;;;;;5068557;28;20112;-57
2022/11/04 05:07:12;;;;;;;4.88;0.20;;;20.70;50.80;;;;;;5068611;28;20055;-56
2022/11/04 05:09:39;;;;;;;0.68;0.00;;;20.70;50.80;;;;;;5068462;28;20139;-56
2022/11/04 05:12:06;;;;;;;2.08;0.10;;;20.70;50.80;;;;;;5068414;28;20037;-58
2022/11/04 05:14:32;;;;;;;0.52;0.10;;;20.70;50.80;;;;;;5074455;28;20094;-57
2022/11/04 05:16:59;;;;;;;0.70;0.00;;;20.70;50.90;;;;;;5076694;28;20127;-58
2022/11/04 05:19:26;;;;;;;0.32;0.10;;;20.80;51.00;;;;;;5068458;28;20127;-58
2022/11/04 05:21:54;;;;;;;0.50;0.28;;;20.70;50.90;;;;;;5067832;28;20493;-57
2022/11/04 05:24:22;;;;;;;0.50;0.10;;;20.70;50.90;;;;;;5068402;28;20577;-60
2022/11/04 05:26:49;;;;;;;0.75;0.03;;;20.70;50.90;;;;;;5067982;28;20044;-58
2022/11/04 05:29:16;;;;;;;0.40;0.00;;;20.80;50.90;;;;;;5068379;28;20479;-57
2022/11/04 05:31:43;;;;;;;4.18;0.10;;;20.70;50.90;;;;;;5066705;28;20048;-58
2022/11/04 05:34:11;;;;;;;0.28;0.00;;;20.70;50.80;;;;;;5069926;28;20123;-58
2022/11/04 05:36:38;;;;;;;1.65;0.00;;;20.70;50.90;;;;;;5068132;28;20040;-59
2022/11/04 05:39:06;;;;;;;2.13;0.10;;;20.70;50.90;;;;;;5078313;28;20052;-58
2022/11/04 05:41:34;;;;;;;0.05;0.00;;;20.70;50.80;;;;;;5070576;28;20109;-59
2022/11/04 05:44:03;;;;;;;1.50;0.10;;;20.70;50.80;;;;;;5067229;28;20036;-57
2022/11/04 05:46:31;;;;;;;0.20;0.00;;;20.70;50.80;;;;;;5065225;28;20508;-61
2022/11/04 05:48:58;;;;;;;1.25;0.00;;;20.70;50.90;;;;;;5070258;28;20560;-57
2022/11/04 05:51:27;;;;;;;2.65;0.10;;;20.70;50.80;;;;;;5067343;28;20131;-58
2022/11/04 05:53:54;;;;;;;1.05;0.20;;;20.70;51.50;;;;;;5077234;28;20128;-60
2022/11/04 05:56:22;;;;;;;0.57;0.00;;;20.70;50.90;;;;;;5067366;28;20060;-59
2022/11/04 05:58:50;;;;;;;0.88;0.10;;;20.70;51.00;;;;;;5067688;28;20098;-58
2022/11/04 06:01:26;;;;;;;1.23;0.10;;;20.70;50.90;;;;;;5067234;28;20407;-56
2022/11/04 06:03:54;;;;;;;0.10;0.00;;;20.70;50.80;;;;;;5068333;28;20661;-60
2022/11/04 06:06:22;;;;;;;0.10;0.10;;;20.70;50.80;;;;;;5066959;28;20770;-59
2022/11/04 06:08:49;;;;;;;0.90;0.10;;;20.70;51.50;;;;;;5066069;28;20052;-58
2022/11/04 06:11:17;;;;;;;2.13;0.10;;;20.80;51.00;;;;;;5066137;28;20044;-59
2022/11/04 06:13:45;;;;;;;1.75;0.52;;;20.80;51.10;;;;;;5066212;28;20036;-57
2022/11/04 06:16:12;;;;;;;1.25;0.00;;;20.80;50.90;;;;;;5064200;28;20040;-60
2022/11/04 06:18:40;;;;;;;0.80;0.10;;;20.80;51.00;;;;;;5068211;28;20094;-59
2022/11/04 06:21:21;;;;;;;1.02;0.10;;;20.80;51.00;;;;;;5067089;28;20045;-59
2022/11/04 06:23:49;;;;;;;0.28;0.10;;;20.80;51.10;;;;;;5067125;28;20055;-59
2022/11/04 06:26:16;;;;;;;0.32;0.10;;;20.80;51.10;;;;;;5066720;28;20060;-60
2022/11/04 06:28:45;;;;;;;0.95;0.75;;;20.90;51.70;;;;;;5067005;28;20051;-60
2022/11/04 06:31:13;;;;;;;0.77;0.00;;;20.90;51.00;;;;;;5066783;28;20029;-56
2022/11/04 06:33:41;;;;;;;1.83;0.10;;;20.90;51.00;;;;;;5067749;28;20083;-59
2022/11/04 06:36:11;;;;;;;3.60;0.28;;;20.90;51.00;;;;;;5078624;28;20485;-58
2022/11/04 06:38:38;;;;;;;1.35;0.20;;;20.90;51.10;;;;;;5061740;28;20801;-59
2022/11/04 06:41:07;;;;;;;1.15;0.10;;;20.90;51.10;;;;;;5056424;28;20123;-59
2022/11/04 06:43:34;;;;;;;6.07;0.00;;;21.00;51.20;;;;;;5068089;28;20102;-56
2022/11/04 06:46:02;;;;;;;1.60;0.20;;;21.00;51.30;;;;;;5070201;28;20029;-58
2022/11/04 06:48:30;;;;;;;1.77;0.50;;;21.00;51.30;;;;;;5067080;28;20045;-59
2022/11/04 06:50:58;;;;;;;4.82;0.17;;;21.00;51.50;;;;;;5066671;28;20044;-56
2022/11/04 06:53:25;;;;;;;5.60;0.95;;;21.00;52.20;;;;;;5067237;28;20048;-49
2022/11/04 06:55:53;;;;;;;0.13;0.00;;;21.00;51.60;;;;;;5063104;28;20044;-49
2022/11/04 06:58:20;;;;;;;4.40;0.22;;;21.00;51.70;;;;;;5064980;28;20432;-54
2022/11/04 07:00:52;;;;;;;1.20;0.00;;;21.10;51.70;;;;;;5064923;28;20048;-55
2022/11/04 07:03:20;;;;;;;1.08;0.10;;;21.10;53.40;;;;;;5067103;28;20039;-55
2022/11/04 07:05:47;;;;;;;2.25;0.30;;;21.10;54.30;;;;;;5065041;28;20734;-55
2022/11/04 07:08:15;;;;;;;0.57;0.08;;;21.20;54.70;;;;;;5083805;28;20102;-55
2022/11/04 07:10:42;;;;;;;2.13;0.25;;;21.20;54.90;;;;;;5071301;28;20037;-55
2022/11/04 07:13:09;;;;;;;5.53;0.60;;;21.20;55.10;;;;;;5066873;28;20055;-54
2022/11/04 07:15:38;;;;;;;3.22;0.98;;;21.20;55.80;;;;;;5066907;28;20125;-55
2022/11/04 07:18:06;;;;;;;15.18;1.38;;;21.30;56.20;;;;;;5067099;28;20066;-55
2022/11/04 07:20:35;;;;;;;7.10;0.40;;;21.30;57.10;;;;;;5073420;28;20039;-57
2022/11/04 07:23:02;;;;;;;7.25;0.10;;;21.30;57.60;;;;;;5070297;28;20040;-56
2022/11/04 07:25:30;;;;;;;6.60;0.35;;;21.40;58.40;;;;;;5070095;28;20051;-58
2022/11/04 07:27:57;;;;;;;14.18;0.45;;;21.40;58.40;;;;;;5070915;28;20479;-58
2022/11/04 07:30:24;;;;;;;8.23;0.10;;;21.40;58.40;;;;;;5070681;28;20075;-57
2022/11/04 07:32:51;;;;;;;13.50;1.50;;;21.40;58.30;;;;;;5070603;28;20044;-57
2022/11/04 07:35:18;;;;;;;2.70;0.10;;;21.40;58.50;;;;;;5070721;28;20040;-56
2022/11/04 07:37:46;;;;;;;5.93;1.00;;;21.40;58.40;;;;;;5070332;28;20090;-57
2022/11/04 07:40:13;;;;;;;3.70;0.30;;;21.40;58.10;;;;;;5070581;28;20041;-58
2022/11/04 07:42:40;;;;;;;4.55;0.40;;;21.40;58.00;;;;;;5070608;28;20239;-57
2022/11/04 07:45:10;;;;;;;2.72;0.13;;;21.40;57.80;;;;;;5069009;28;20040;-56
2022/11/04 07:47:36;;;;;;;1.75;0.10;;;21.40;57.80;;;;;;5053371;28;20041;-58
2022/11/04 07:50:04;;;;;;;4.05;0.10;;;21.40;57.30;;;;;;5069913;28;20037;-57
2022/11/04 07:52:31;;;;;;;0.80;0.10;;;21.40;57.10;;;;;;5069837;28;20040;-56
2022/11/04 07:54:59;;;;;;;3.10;0.20;;;21.50;57.20;;;;;;5070161;28;20509;-58
2022/11/04 07:57:28;;;;;;;3.20;0.10;;;21.40;56.90;;;;;;5070391;28;20401;-57
2022/11/04 07:59:55;;;;;;;3.33;0.57;;;21.50;56.70;;;;;;5070356;28;20150;-56
2022/11/04 08:02:22;;;;;;;0.32;0.30;;;21.50;56.70;;;;;;5070113;28;20419;-58
2022/11/04 08:04:49;;;;;;;3.10;0.40;;;21.50;56.40;;;;;;5070576;28;20127;-56
2022/11/04 08:07:16;;;;;;;5.82;0.98;;;21.50;56.30;;;;;;5069999;28;20060;-58
2022/11/04 08:09:43;;;;;;;1.23;0.10;;;21.40;56.00;;;;;;5069652;28;20040;-56
2022/11/04 08:12:12;;;;;;;4.47;0.60;;;21.40;55.90;;;;;;5069859;28;20043;-56
2022/11/04 08:14:39;;;;;;;2.05;0.10;;;21.50;55.80;;;;;;5070087;28;20044;-57
2022/11/04 08:17:06;;;;;;;1.45;0.10;;;21.50;55.60;;;;;;5070264;28;20584;-56
2022/11/04 08:19:33;;;;;;;1.35;0.10;;;21.50;55.40;;;;;;5070169;28;20044;-58
2022/11/04 08:22:00;;;;;;;2.42;0.55;;;21.50;55.20;;;;;;5068142;28;20111;-57
2022/11/04 08:24:27;;;;;;;2.88;0.10;;;21.50;54.90;;;;;;5069831;28;20051;-53
2022/11/04 08:26:54;;;;;;;0.50;0.10;;;21.50;54.60;;;;;;5069786;28;20044;-55
2022/11/04 08:29:22;;;;;;;0.17;0.00;;;21.50;54.50;;;;;;5069630;28;20595;-58
2022/11/04 08:31:49;;;;;;;2.60;0.10;;;21.50;54.40;;;;;;5068850;28;20575;-56
2022/11/04 08:34:17;;;;;;;2.80;1.27;;;21.40;54.00;;;;;;5069243;28;20050;-56
2022/11/04 08:36:45;;;;;;;2.00;0.20;;;21.50;54.00;;;;;;5069246;28;20044;-57
2022/11/04 08:39:12;;;;;;;1.02;0.10;;;21.40;53.80;;;;;;5069422;28;20044;-56
2022/11/04 08:41:44;;;;;;;1.00;0.10;;;21.40;53.80;;;;;;5069602;28;20094;-57
2022/11/04 08:44:12;;;;;;;0.40;0.05;;;21.50;53.70;;;;;;5077753;28;20523;-56
2022/11/04 08:46:42;;;;;;;2.15;1.00;;;21.40;53.60;;;;;;5089520;28;20124;-57
2022/11/04 08:49:10;;;;;;;1.52;0.08;;;21.40;53.50;;;;;;5074547;28;20082;-57
2022/11/04 08:51:39;;;;;;;2.20;0.10;;;21.40;53.40;;;;;;5068972;28;20053;-53
2022/11/04 08:54:07;;;;;;;2.25;0.30;;;21.40;53.20;;;;;;5069128;28;20062;-57
2022/11/04 08:56:36;;;;;;;2.65;0.10;;;21.40;53.10;;;;;;5068825;28;20044;-55
2022/11/04 08:59:04;;;;;;;1.60;0.10;;;21.40;53.10;;;;;;5069127;28;20131;-57
2022/11/04 09:01:33;;;;;;;0.57;0.10;;;21.40;52.80;;;;;;5068980;28;20133;-56
2022/11/04 09:04:01;;;;;;;1.95;0.10;;;21.40;52.90;;;;;;5068675;28;20041;-57
2022/11/04 09:06:31;;;;;;;1.88;0.10;;;21.40;52.80;;;;;;5069299;28;20036;-56
2022/11/04 09:09:02;;;;;;;0.77;0.10;;;21.40;52.60;;;;;;5069153;28;20579;-56
2022/11/04 09:11:31;;;;;;;0.20;0.10;;;21.40;52.70;;;;;;5068924;28;20115;-56
2022/11/04 09:14:02;;;;;;;0.30;0.10;;;21.40;52.60;;;;;;5068961;28;20040;-57
2022/11/04 09:16:31;;;;;;;1.08;0.52;;;21.40;52.60;;;;;;5068618;28;20052;-56
2022/11/04 09:18:58;;;;;;;0.30;0.10;;;21.40;52.40;;;;;;5068450;28;20106;-56
2022/11/04 09:21:28;;;;;;;0.20;0.10;;;21.40;52.40;;;;;;5049716;28;20045;-58
2022/11/04 09:23:56;;;;;;;0.63;0.22;;;21.40;52.30;;;;;;5059953;28;20039;-57
2022/11/04 09:26:24;;;;;;;1.42;0.10;;;21.40;52.20;;;;;;5068295;28;20141;-57
2022/11/04 09:28:54;;;;;;;1.27;0.20;;;21.40;52.20;;;;;;5068559;28;20059;-57
2022/11/04 09:31:22;;;;;;;2.95;0.25;;;21.40;52.10;;;;;;5068155;28;20051;-58
2022/11/04 09:33:49;;;;;;;0.60;0.10;;;21.40;52.00;;;;;;5068286;28;20036;-57
2022/11/04 09:36:16;;;;;;;0.10;0.00;;;21.40;52.10;;;;;;5068477;28;20048;-56
2022/11/04 09:38:45;;;;;;;0.20;0.08;;;21.40;51.90;;;;;;5066917;28;20041;-59
2022/11/04 09:41:38;;;;;;;2.17;0.10;;;21.50;51.90;;;;;;5068208;28;20131;-57
2022/11/04 09:44:16;;;;;;;0.20;0.10;;;21.50;51.80;;;;;;5068398;28;20749;-56
2022/11/04 09:46:47;;;;;;;1.45;0.10;;;21.50;51.80;;;;;;5068216;28;20072;-54
2022/11/04 09:49:15;;;;;;;0.68;0.10;;;21.50;51.70;;;;;;5067628;28;20414;-56
2022/11/04 09:51:44;;;;;;;0.30;0.10;;;21.50;51.60;;;;;;5067886;28;20048;-55
2022/11/04 09:54:18;;;;;;;0.75;0.00;;;21.40;51.50;;;;;;5068184;28;20055;-57
2022/11/04 09:56:48;;;;;;;1.17;0.10;;;21.50;51.50;;;;;;5067875;28;20090;-56
2022/11/04 09:59:26;;;;;;;3.47;0.20;;;21.40;51.30;;;;;;5068123;28;20128;-54
2022/11/04 10:02:17;;;;;;;2.92;0.10;;;21.50;51.40;;;;;;5067746;28;20043;-56
2022/11/04 10:04:56;;;;;;;1.20;0.20;;;21.40;51.20;;;;;;5068081;28;20041;-55
2022/11/04 10:07:36;;;;;;;1.92;0.00;;;21.40;51.20;;;;;;5068309;28;20106;-55
2022/11/04 10:10:12;;;;;;;0.63;0.03;;;21.40;51.70;;;;;;5068179;28;20036;-56
2022/11/04 10:12:53;;;;;;;0.10;0.00;;;21.40;51.00;;;;;;5063369;28;20183;-56
2022/11/04 10:15:38;;;;;;;1.65;0.10;;;21.40;51.00;;;;;;5047795;28;20049;-53
2022/11/04 10:18:17;;;;;;;1.75;0.25;;;21.40;51.00;;;;;;5054631;28;20424;-56
2022/11/04 10:20:52;;;;;;;1.50;0.10;;;21.40;51.00;;;;;;5067793;28;20135;-57
2022/11/04 10:23:23;;;;;;;1.45;0.10;;;21.40;51.00;;;;;;5067932;28;20041;-55
2022/11/04 10:25:59;;;;;;;0.10;0.10;;;21.40;50.90;;;;;;5068083;28;20044;-54
2022/11/04 10:28:30;;;;;;;1.48;0.10;;;21.40;50.90;;;;;;5067956;28;20075;-56
2022/11/04 10:30:58;;;;;;;1.27;0.10;;;21.40;50.80;;;;;;5067381;28;20048;-57
2022/11/04 10:33:32;;;;;;;0.73;0.05;;;21.40;50.80;;;;;;5067664;28;20468;-57
2022/11/04 10:36:01;;;;;;;0.85;0.10;;;21.40;50.70;;;;;;5066392;28;20064;-57
2022/11/04 10:38:36;;;;;;;0.55;0.52;;;21.40;50.60;;;;;;5067964;28;20062;-57
2022/11/04 10:41:17;;;;;;;1.20;0.10;;;21.50;50.60;;;;;;5078693;28;20139;-55
2022/11/04 10:43:44;;;;;;;3.20;0.10;;;21.50;51.20;;;;;;5087821;28;20063;-56
2022/11/04 10:46:41;;;;;;;1.13;0.20;;;21.50;50.50;;;;;;5087523;28;20043;-58
2022/11/04 10:49:30;;;;;;;1.75;0.63;;;21.60;50.50;;;;;;5073393;28;20164;-60
2022/11/04 10:51:58;;;;;;;0.22;0.10;;;21.50;50.40;;;;;;5067488;28;20049;-57
2022/11/04 10:54:27;;;;;;;0.30;0.30;;;21.60;50.40;;;;;;5069443;28;20072;-57
2022/11/04 10:56:56;;;;;;;1.55;0.10;;;21.60;50.30;;;;;;5071359;28;20057;-55
2022/11/04 10:59:25;;;;;;;1.05;0.10;;;21.70;50.20;;;;;;5071258;28;20048;-57
2022/11/04 11:01:53;;;;;;;2.00;0.10;;;21.80;49.90;;;;;;5071083;28;20098;-55
2022/11/04 11:04:30;;;;;;;0.50;0.10;;;21.80;49.80;;;;;;5071388;28;20040;-56
2022/11/04 11:06:59;;;;;;;0.20;0.10;;;21.90;49.70;;;;;;5071526;28;20048;-58
2022/11/04 11:09:28;;;;;;;0.30;0.00;;;21.80;49.60;;;;;;5071443;28;20048;-57
2022/11/04 11:12:00;;;;;;;2.25;0.10;;;21.90;49.60;;;;;;5069860;28;20045;-58
2022/11/04 11:14:36;;;;;;;2.08;0.10;;;21.90;49.40;;;;;;5070722;28;20043;-57
2022/11/04 11:17:24;;;;;;;0.57;0.30;;;21.90;49.80;;;;;;5071206;28;20129;-56
2022/11/04 11:19:57;;;;;;;0.20;0.00;;;22.00;48.80;;;;;;5070977;28;20067;-56
2022/11/04 11:22:31;;;;;;;2.95;0.08;;;21.90;48.70;;;;;;5070979;28;20509;-55
2022/11/04 11:25:21;;;;;;;1.27;0.00;;;22.00;48.80;;;;;;5070993;28;20127;-56
2022/11/04 11:27:52;;;;;;;0.20;0.00;;;22.10;48.80;;;;;;5070867;28;20480;-56
2022/11/04 11:30:31;;;;;;;0.10;0.05;;;22.10;48.70;;;;;;5070601;28;20140;-56
2022/11/04 11:33:00;;;;;;;0.50;0.10;;;22.10;48.30;;;;;;5070749;28;20047;-57
2022/11/04 11:35:32;;;;;;;1.58;0.10;;;22.10;48.40;;;;;;5070681;28;20082;-57
2022/11/04 11:38:02;;;;;;;0.10;0.00;;;22.20;48.30;;;;;;5070748;28;20504;-57
2022/11/04 11:40:33;;;;;;;0.00;0.00;;;22.20;48.20;;;;;;5070937;28;20044;-56
2022/11/04 11:43:02;;;;;;;1.23;0.20;;;22.20;48.20;;;;;;5070522;28;20071;-57
2022/11/04 11:45:30;;;;;;;1.25;0.00;;;22.20;48.10;;;;;;5070563;28;20055;-58
2022/11/04 11:47:57;;;;;;;0.55;0.00;;;22.20;48.00;;;;;;5070478;28;20373;-57
2022/11/04 11:50:31;;;;;;;0.40;0.15;;;22.20;47.90;;;;;;5063321;28;20061;-57
2022/11/04 11:53:15;;;;;;;1.75;0.10;;;22.20;47.90;;;;;;5070376;28;20062;-56
2022/11/04 11:55:48;;;;;;;1.17;0.20;;;22.20;47.90;;;;;;5070599;28;20033;-57
2022/11/04 11:58:25;;;;;;;0.68;0.30;;;22.20;48.50;;;;;;5069981;28;20048;-57
2022/11/04 12:00:58;;;;;;;1.52;0.10;;;22.20;47.90;;;;;;5069033;28;20094;-55
2022/11/04 12:03:32;;;;;;;0.10;0.00;;;22.20;47.90;;;;;;5070105;28;20079;-54
2022/11/04 12:06:25;;;;;;;1.77;0.10;;;22.20;47.90;;;;;;5068928;28;20075;-55
2022/11/04 12:09:08;;;;;;;1.55;0.08;;;22.20;47.90;;;;;;5070245;28;20090;-57
2022/11/04 12:11:48;;;;;;;2.92;0.03;;;22.20;47.90;;;;;;5069924;28;20461;-55
2022/11/04 12:14:24;;;;;;;0.10;0.00;;;22.20;47.90;;;;;;5069982;28;20050;-56
2022/11/04 12:17:01;;;;;;;1.13;0.00;;;22.20;47.90;;;;;;5069440;28;20040;-57
2022/11/04 12:19:42;;;;;;;0.20;0.00;;;22.20;47.90;;;;;;5070058;28;20053;-56
2022/11/04 12:22:19;;;;;;;0.03;0.00;;;22.20;47.90;;;;;;5069927;28;20055;-54
2022/11/04 12:24:55;;;;;;;0.10;0.00;;;22.20;47.70;;;;;;5069984;28;20056;-57
2022/11/04 12:27:32;;;;;;;0.45;0.00;;;22.30;47.90;;;;;;5089542;28;20116;-56
2022/11/04 12:30:07;;;;;;;0.03;0.00;;;22.30;47.80;;;;;;5089911;28;20064;-56
2022/11/04 12:32:47;;;;;;;0.30;0.00;;;22.30;47.90;;;;;;5090033;28;20052;-57
2022/11/04 12:35:30;;;;;;;0.90;0.00;;;22.40;47.80;;;;;;5089798;28;20040;-57
2022/11/04 12:38:08;;;;;;;1.58;0.10;;;22.40;47.70;;;;;;5078373;28;20704;-56
2022/11/04 12:40:44;;;;;;;1.42;0.10;;;22.40;47.50;;;;;;5051608;28;20135;-56
2022/11/04 12:43:21;;;;;;;1.25;0.20;;;22.40;47.10;;;;;;5104316;28;20127;-55
2022/11/04 12:46:08;;;;;;;1.63;0.00;;;22.40;47.20;;;;;;5109792;28;20036;-55
2022/11/04 12:48:57;;;;;;;0.28;0.00;;;22.50;47.40;;;;;;5109965;28;20127;-56
2022/11/04 12:51:33;;;;;;;0.30;0.10;;;22.50;47.30;;;;;;5090476;28;20309;-55
2022/11/04 12:54:18;;;;;;;0.95;0.10;;;22.50;47.40;;;;;;5089423;28;20050;-56
2022/11/04 12:56:47;;;;;;;0.20;0.10;;;22.60;47.40;;;;;;5088999;28;20523;-56
2022/11/04 12:59:29;;;;;;;0.30;0.08;;;22.60;47.40;;;;;;5089588;28;20044;-55
2022/11/04 13:02:02;;;;;;;0.85;0.17;;;22.60;47.30;;;;;;5070940;28;20071;-57
2022/11/04 13:04:35;;;;;;;0.77;0.10;;;22.60;47.20;;;;;;5089254;28;20063;-57
2022/11/04 13:07:09;;;;;;;0.82;0.13;;;22.60;47.00;;;;;;5089258;28;20048;-57
2022/11/04 13:09:40;;;;;;;1.33;0.03;;;22.70;47.00;;;;;;5089107;28;20141;-58
2022/11/04 13:12:11;;;;;;;0.50;0.10;;;22.70;46.90;;;;;;5088797;28;20040;-58
2022/11/04 13:14:44;;;;;;;0.20;0.00;;;22.70;46.70;;;;;;5088867;28;20055;-56
2022/11/04 13:17:17;;;;;;;0.20;0.03;;;22.70;46.70;;;;;;5069924;28;20646;-57
2022/11/04 13:19:48;;;;;;;0.15;0.00;;;22.80;46.70;;;;;;5088997;28;20812;-58
2022/11/04 13:22:20;;;;;;;0.82;0.00;;;22.80;46.80;;;;;;5088798;28;20442;-58
2022/11/04 13:24:51;;;;;;;0.95;0.10;;;22.90;47.40;;;;;;5088656;28;20044;-57
2022/11/04 13:27:21;;;;;;;0.03;0.00;;;22.90;46.80;;;;;;5075495;28;20127;-57
2022/11/04 13:29:51;;;;;;;1.20;0.10;;;23.00;46.90;;;;;;5068787;28;20076;-57
2022/11/04 13:32:30;;;;;;;0.47;0.10;;;23.00;46.80;;;;;;5068116;28;20055;-58
2022/11/04 13:35:04;;;;;;;0.10;0.00;;;23.00;46.70;;;;;;5068545;28;20413;-57
2022/11/04 13:37:36;;;;;;;0.57;0.10;;;23.00;46.70;;;;;;5068325;28;20048;-56
2022/11/04 13:40:12;;;;;;;2.40;0.00;;;23.00;46.70;;;;;;5067904;28;20068;-57